Nashville, Tennessee
Traffic Map
Current Weather Conditions
Nashville, Tennessee
Broken Clouds
Broken Clouds
31°
Feels Like: 32°
Wind Chill: 31° Ceiling: 25000
Heat Index: 32° Visibility: 10mi
Dew Point: 18° Wind: 6mph
Humidity: 45% Direction: 110° (ESE)
Pressure: 30.02in Gusts: 0mph
Raw Report DataKBNA 022253Z 11005KT 10SM FEW065 SCT100 BKN250 31/18 A3002 RMK AO2 SLP156 T03110178
Traffic Incident Summary
Active as of:
Severity:
Category:
InformationThere was an issue retrieving the traffic information for this location. Please try a different location or try again shortly.
Advertisements
Track Severe Weather on mobile